sensor_id;sensor_type;location;lat;lon;timestamp;temperature;humidity
16271;DHT22;8243;49.048;8.396;2023-01-29T00:01:36;1.30;58.30
16271;DHT22;8243;49.048;8.396;2023-01-29T00:04:02;1.30;57.50
16271;DHT22;8243;49.048;8.396;2023-01-29T00:06:28;1.20;58.00
16271;DHT22;8243;49.048;8.396;2023-01-29T00:08:53;1.20;58.30
16271;DHT22;8243;49.048;8.396;2023-01-29T00:11:19;1.10;58.70
16271;DHT22;8243;49.048;8.396;2023-01-29T00:13:45;1.40;59.20
16271;DHT22;8243;49.048;8.396;2023-01-29T00:16:11;1.00;58.40
16271;DHT22;8243;49.048;8.396;2023-01-29T00:18:38;1.10;58.30
16271;DHT22;8243;49.048;8.396;2023-01-29T00:21:12;1.10;57.90
16271;DHT22;8243;49.048;8.396;2023-01-29T00:23:38;1.00;58.50
16271;DHT22;8243;49.048;8.396;2023-01-29T00:26:04;1.10;59.40
16271;DHT22;8243;49.048;8.396;2023-01-29T00:28:30;1.10;59.90
16271;DHT22;8243;49.048;8.396;2023-01-29T00:30:55;1.10;60.00
16271;DHT22;8243;49.048;8.396;2023-01-29T00:33:21;1.10;60.20
16271;DHT22;8243;49.048;8.396;2023-01-29T00:35:46;1.20;60.00
16271;DHT22;8243;49.048;8.396;2023-01-29T00:38:12;1.20;60.60
16271;DHT22;8243;49.048;8.396;2023-01-29T00:40:38;1.10;60.30
16271;DHT22;8243;49.048;8.396;2023-01-29T00:43:27;1.10;60.30
16271;DHT22;8243;49.048;8.396;2023-01-29T00:46:11;1.00;60.30
16271;DHT22;8243;49.048;8.396;2023-01-29T00:48:37;1.10;59.40
16271;DHT22;8243;49.048;8.396;2023-01-29T00:51:02;1.30;59.90
16271;DHT22;8243;49.048;8.396;2023-01-29T00:53:28;1.10;60.00
16271;DHT22;8243;49.048;8.396;2023-01-29T00:55:54;1.10;60.20
16271;DHT22;8243;49.048;8.396;2023-01-29T00:58:20;1.10;60.20
16271;DHT22;8243;49.048;8.396;2023-01-29T01:00:47;1.20;59.50
16271;DHT22;8243;49.048;8.396;2023-01-29T01:03:14;0.90;59.20
16271;DHT22;8243;49.048;8.396;2023-01-29T01:05:39;0.90;59.60
16271;DHT22;8243;49.048;8.396;2023-01-29T01:08:07;0.90;60.00
16271;DHT22;8243;49.048;8.396;2023-01-29T01:11:04;0.90;60.30
16271;DHT22;8243;49.048;8.396;2023-01-29T01:13:32;1.00;60.70
16271;DHT22;8243;49.048;8.396;2023-01-29T01:15:59;1.00;60.70
16271;DHT22;8243;49.048;8.396;2023-01-29T01:18:28;1.00;60.50
16271;DHT22;8243;49.048;8.396;2023-01-29T01:20:56;1.00;60.40
16271;DHT22;8243;49.048;8.396;2023-01-29T01:23:23;0.80;60.40
16271;DHT22;8243;49.048;8.396;2023-01-29T01:25:49;0.80;60.90
16271;DHT22;8243;49.048;8.396;2023-01-29T01:28:15;0.80;61.80
16271;DHT22;8243;49.048;8.396;2023-01-29T01:30:40;0.90;61.10
16271;DHT22;8243;49.048;8.396;2023-01-29T01:33:06;0.90;61.70
16271;DHT22;8243;49.048;8.396;2023-01-29T01:35:32;0.90;62.40
16271;DHT22;8243;49.048;8.396;2023-01-29T01:37:57;0.70;62.30
16271;DHT22;8243;49.048;8.396;2023-01-29T01:40:25;0.90;62.20
16271;DHT22;8243;49.048;8.396;2023-01-29T01:42:58;1.00;62.00
16271;DHT22;8243;49.048;8.396;2023-01-29T01:48:20;0.90;62.70
16271;DHT22;8243;49.048;8.396;2023-01-29T01:50:54;0.70;62.40
16271;DHT22;8243;49.048;8.396;2023-01-29T01:53:28;0.80;62.90
16271;DHT22;8243;49.048;8.396;2023-01-29T01:56:03;0.80;63.40
16271;DHT22;8243;49.048;8.396;2023-01-29T01:58:37;0.70;64.10
16271;DHT22;8243;49.048;8.396;2023-01-29T02:01:06;0.70;64.30
16271;DHT22;8243;49.048;8.396;2023-01-29T02:03:37;0.60;64.90
16271;DHT22;8243;49.048;8.396;2023-01-29T02:06:22;0.70;64.60
16271;DHT22;8243;49.048;8.396;2023-01-29T02:09:12;0.60;65.30
16271;DHT22;8243;49.048;8.396;2023-01-29T02:11:58;0.60;64.80
16271;DHT22;8243;49.048;8.396;2023-01-29T02:14:24;0.80;65.10
16271;DHT22;8243;49.048;8.396;2023-01-29T02:16:50;0.80;64.90
16271;DHT22;8243;49.048;8.396;2023-01-29T02:33:28;0.60;63.40
16271;DHT22;8243;49.048;8.396;2023-01-29T02:36:05;0.70;63.30
16271;DHT22;8243;49.048;8.396;2023-01-29T02:41:22;0.80;62.50
16271;DHT22;8243;49.048;8.396;2023-01-29T02:44:05;0.70;61.70
16271;DHT22;8243;49.048;8.396;2023-01-29T02:47:35;0.80;62.50
16271;DHT22;8243;49.048;8.396;2023-01-29T02:49:48;0.80;61.90
16271;DHT22;8243;49.048;8.396;2023-01-29T02:52:36;0.80;61.10
16271;DHT22;8243;49.048;8.396;2023-01-29T02:55:12;0.60;61.70
16271;DHT22;8243;49.048;8.396;2023-01-29T02:57:43;0.60;63.20
16271;DHT22;8243;49.048;8.396;2023-01-29T03:00:18;0.80;62.80
16271;DHT22;8243;49.048;8.396;2023-01-29T03:03:14;0.70;62.50
16271;DHT22;8243;49.048;8.396;2023-01-29T03:06:02;0.90;62.70
16271;DHT22;8243;49.048;8.396;2023-01-29T03:11:06;0.90;62.40
16271;DHT22;8243;49.048;8.396;2023-01-29T03:13:52;0.50;62.60
16271;DHT22;8243;49.048;8.396;2023-01-29T03:19:33;0.50;64.30
16271;DHT22;8243;49.048;8.396;2023-01-29T03:22:01;0.60;65.30
16271;DHT22;8243;49.048;8.396;2023-01-29T03:24:47;0.40;64.90
16271;DHT22;8243;49.048;8.396;2023-01-29T03:27:42;0.50;65.50
16271;DHT22;8243;49.048;8.396;2023-01-29T03:30:31;0.40;65.50
16271;DHT22;8243;49.048;8.396;2023-01-29T03:33:18;0.60;64.80
16271;DHT22;8243;49.048;8.396;2023-01-29T03:36:02;0.70;66.50
16271;DHT22;8243;49.048;8.396;2023-01-29T03:38:29;0.60;66.60
16271;DHT22;8243;49.048;8.396;2023-01-29T03:44:52;0.50;65.20
16271;DHT22;8243;49.048;8.396;2023-01-29T03:46:55;0.70;64.50
16271;DHT22;8243;49.048;8.396;2023-01-29T03:52:14;0.50;66.60
16271;DHT22;8243;49.048;8.396;2023-01-29T03:55:13;0.70;66.70
16271;DHT22;8243;49.048;8.396;2023-01-29T03:57:50;0.40;66.40
16271;DHT22;8243;49.048;8.396;2023-01-29T04:00:40;0.70;67.20
16271;DHT22;8243;49.048;8.396;2023-01-29T04:03:23;0.40;67.00
16271;DHT22;8243;49.048;8.396;2023-01-29T04:05:57;0.30;66.40
16271;DHT22;8243;49.048;8.396;2023-01-29T04:08:31;0.40;66.40
16271;DHT22;8243;49.048;8.396;2023-01-29T04:11:02;0.60;66.50
16271;DHT22;8243;49.048;8.396;2023-01-29T04:13:32;0.60;66.10
16271;DHT22;8243;49.048;8.396;2023-01-29T04:15:59;0.50;66.50
16271;DHT22;8243;49.048;8.396;2023-01-29T04:18:25;0.50;67.20
16271;DHT22;8243;49.048;8.396;2023-01-29T04:20:51;0.60;68.40
16271;DHT22;8243;49.048;8.396;2023-01-29T04:23:25;0.30;68.00
16271;DHT22;8243;49.048;8.396;2023-01-29T04:28:52;0.30;67.10
16271;DHT22;8243;49.048;8.396;2023-01-29T04:31:22;0.30;67.10
16271;DHT22;8243;49.048;8.396;2023-01-29T04:34:13;0.50;67.30
16271;DHT22;8243;49.048;8.396;2023-01-29T04:37:04;0.40;66.50
16271;DHT22;8243;49.048;8.396;2023-01-29T04:39:53;0.30;67.50
16271;DHT22;8243;49.048;8.396;2023-01-29T04:42:33;0.60;67.80
16271;DHT22;8243;49.048;8.396;2023-01-29T04:45:03;0.50;68.10
16271;DHT22;8243;49.048;8.396;2023-01-29T04:50:28;0.40;67.60
16271;DHT22;8243;49.048;8.396;2023-01-29T04:53:09;0.50;68.00
16271;DHT22;8243;49.048;8.396;2023-01-29T04:55:48;0.50;68.30
16271;DHT22;8243;49.048;8.396;2023-01-29T05:00:52;0.50;68.50
16271;DHT22;8243;49.048;8.396;2023-01-29T05:03:18;0.60;69.40
16271;DHT22;8243;49.048;8.396;2023-01-29T05:05:47;0.30;67.60
16271;DHT22;8243;49.048;8.396;2023-01-29T05:08:16;0.40;68.30
16271;DHT22;8243;49.048;8.396;2023-01-29T05:10:42;0.50;69.50
16271;DHT22;8243;49.048;8.396;2023-01-29T05:13:10;0.40;69.50
16271;DHT22;8243;49.048;8.396;2023-01-29T05:15:39;0.30;69.80
16271;DHT22;8243;49.048;8.396;2023-01-29T05:18:07;0.20;68.80
16271;DHT22;8243;49.048;8.396;2023-01-29T05:20:38;0.20;68.40
16271;DHT22;8243;49.048;8.396;2023-01-29T05:23:17;0.30;68.60
16271;DHT22;8243;49.048;8.396;2023-01-29T05:25:43;0.30;68.60
16271;DHT22;8243;49.048;8.396;2023-01-29T05:28:09;0.20;67.90
16271;DHT22;8243;49.048;8.396;2023-01-29T05:30:49;0.40;67.70
16271;DHT22;8243;49.048;8.396;2023-01-29T05:33:22;0.20;67.80
16271;DHT22;8243;49.048;8.396;2023-01-29T05:35:49;0.30;69.20
16271;DHT22;8243;49.048;8.396;2023-01-29T05:38:15;0.30;69.00
16271;DHT22;8243;49.048;8.396;2023-01-29T05:40:41;0.10;68.90
16271;DHT22;8243;49.048;8.396;2023-01-29T05:43:16;0.20;68.60
16271;DHT22;8243;49.048;8.396;2023-01-29T05:45:43;0.30;68.60
16271;DHT22;8243;49.048;8.396;2023-01-29T05:48:15;0.50;68.80
16271;DHT22;8243;49.048;8.396;2023-01-29T05:50:41;0.30;69.60
16271;DHT22;8243;49.048;8.396;2023-01-29T05:53:07;0.20;70.40
16271;DHT22;8243;49.048;8.396;2023-01-29T05:55:33;0.10;70.40
16271;DHT22;8243;49.048;8.396;2023-01-29T05:57:58;0.30;70.80
16271;DHT22;8243;49.048;8.396;2023-01-29T06:00:24;0.10;71.40
16271;DHT22;8243;49.048;8.396;2023-01-29T06:02:49;0.40;73.00
16271;DHT22;8243;49.048;8.396;2023-01-29T06:05:15;0.20;72.30
16271;DHT22;8243;49.048;8.396;2023-01-29T06:07:41;0.50;72.00
16271;DHT22;8243;49.048;8.396;2023-01-29T06:10:14;0.20;71.50
16271;DHT22;8243;49.048;8.396;2023-01-29T06:12:41;0.30;71.80
16271;DHT22;8243;49.048;8.396;2023-01-29T06:15:07;0.20;72.30
16271;DHT22;8243;49.048;8.396;2023-01-29T06:17:33;0.30;72.20
16271;DHT22;8243;49.048;8.396;2023-01-29T06:19:58;0.30;73.00
16271;DHT22;8243;49.048;8.396;2023-01-29T06:22:24;0.30;73.90
16271;DHT22;8243;49.048;8.396;2023-01-29T06:24:50;0.30;74.30
16271;DHT22;8243;49.048;8.396;2023-01-29T06:27:15;0.10;73.30
16271;DHT22;8243;49.048;8.396;2023-01-29T06:29:41;0.40;73.60
16271;DHT22;8243;49.048;8.396;2023-01-29T06:32:06;0.50;73.60
16271;DHT22;8243;49.048;8.396;2023-01-29T06:34:32;0.10;72.10
16271;DHT22;8243;49.048;8.396;2023-01-29T06:36:57;0.30;72.90
16271;DHT22;8243;49.048;8.396;2023-01-29T06:39:23;0.40;72.90
16271;DHT22;8243;49.048;8.396;2023-01-29T06:41:48;0.30;73.50
16271;DHT22;8243;49.048;8.396;2023-01-29T06:44:14;0.30;73.20
16271;DHT22;8243;49.048;8.396;2023-01-29T06:46:39;0.00;73.50
16271;DHT22;8243;49.048;8.396;2023-01-29T06:49:05;0.30;75.30
16271;DHT22;8243;49.048;8.396;2023-01-29T06:51:30;0.20;75.80
16271;DHT22;8243;49.048;8.396;2023-01-29T06:53:56;0.10;75.10
16271;DHT22;8243;49.048;8.396;2023-01-29T06:56:22;0.40;73.80
16271;DHT22;8243;49.048;8.396;2023-01-29T06:58:48;0.40;73.70
16271;DHT22;8243;49.048;8.396;2023-01-29T07:01:13;0.40;73.80
16271;DHT22;8243;49.048;8.396;2023-01-29T07:03:39;0.20;74.50
16271;DHT22;8243;49.048;8.396;2023-01-29T07:06:06;0.30;74.90
16271;DHT22;8243;49.048;8.396;2023-01-29T07:08:36;0.30;74.80
16271;DHT22;8243;49.048;8.396;2023-01-29T07:11:02;0.30;75.60
16271;DHT22;8243;49.048;8.396;2023-01-29T07:13:27;0.20;76.20
16271;DHT22;8243;49.048;8.396;2023-01-29T07:15:53;0.20;77.60
16271;DHT22;8243;49.048;8.396;2023-01-29T07:18:19;0.10;78.10
16271;DHT22;8243;49.048;8.396;2023-01-29T07:20:44;0.20;78.30
16271;DHT22;8243;49.048;8.396;2023-01-29T07:23:11;0.10;78.00
16271;DHT22;8243;49.048;8.396;2023-01-29T07:25:38;0.30;78.30
16271;DHT22;8243;49.048;8.396;2023-01-29T07:28:04;0.20;77.70
16271;DHT22;8243;49.048;8.396;2023-01-29T07:30:30;0.40;77.20
16271;DHT22;8243;49.048;8.396;2023-01-29T07:33:03;0.60;77.40
16271;DHT22;8243;49.048;8.396;2023-01-29T07:35:29;0.60;75.80
16271;DHT22;8243;49.048;8.396;2023-01-29T07:37:55;0.60;75.00
16271;DHT22;8243;49.048;8.396;2023-01-29T07:40:20;0.70;74.00
16271;DHT22;8243;49.048;8.396;2023-01-29T07:42:46;0.40;72.60
16271;DHT22;8243;49.048;8.396;2023-01-29T07:45:12;0.50;72.90
16271;DHT22;8243;49.048;8.396;2023-01-29T07:47:37;0.60;73.00
16271;DHT22;8243;49.048;8.396;2023-01-29T07:50:03;0.70;71.00
16271;DHT22;8243;49.048;8.396;2023-01-29T07:52:30;0.80;69.90
16271;DHT22;8243;49.048;8.396;2023-01-29T07:54:56;0.60;69.90
16271;DHT22;8243;49.048;8.396;2023-01-29T07:57:21;0.70;68.20
16271;DHT22;8243;49.048;8.396;2023-01-29T07:59:47;0.80;68.10
16271;DHT22;8243;49.048;8.396;2023-01-29T08:02:13;1.10;68.30
16271;DHT22;8243;49.048;8.396;2023-01-29T08:04:38;0.60;69.30
16271;DHT22;8243;49.048;8.396;2023-01-29T08:07:04;0.90;68.70
16271;DHT22;8243;49.048;8.396;2023-01-29T08:09:30;1.10;67.00
16271;DHT22;8243;49.048;8.396;2023-01-29T08:11:56;0.70;66.50
16271;DHT22;8243;49.048;8.396;2023-01-29T08:14:22;1.10;66.20
16271;DHT22;8243;49.048;8.396;2023-01-29T08:16:48;0.80;65.40
16271;DHT22;8243;49.048;8.396;2023-01-29T08:19:14;0.60;65.50
16271;DHT22;8243;49.048;8.396;2023-01-29T08:21:40;0.90;65.10
16271;DHT22;8243;49.048;8.396;2023-01-29T08:24:05;0.70;65.40
16271;DHT22;8243;49.048;8.396;2023-01-29T08:26:31;0.90;65.50
16271;DHT22;8243;49.048;8.396;2023-01-29T08:28:57;0.90;65.70
16271;DHT22;8243;49.048;8.396;2023-01-29T08:31:22;1.10;65.60
16271;DHT22;8243;49.048;8.396;2023-01-29T08:33:48;0.90;65.10
16271;DHT22;8243;49.048;8.396;2023-01-29T08:36:14;1.00;64.80
16271;DHT22;8243;49.048;8.396;2023-01-29T08:38:40;0.90;65.00
16271;DHT22;8243;49.048;8.396;2023-01-29T08:41:06;1.30;65.50
16271;DHT22;8243;49.048;8.396;2023-01-29T08:43:32;1.30;65.60
16271;DHT22;8243;49.048;8.396;2023-01-29T08:45:57;1.30;64.30
16271;DHT22;8243;49.048;8.396;2023-01-29T08:48:23;1.60;63.00
16271;DHT22;8243;49.048;8.396;2023-01-29T08:50:50;1.80;62.20
16271;DHT22;8243;49.048;8.396;2023-01-29T08:53:15;1.80;59.30
16271;DHT22;8243;49.048;8.396;2023-01-29T08:55:41;2.00;58.50
16271;DHT22;8243;49.048;8.396;2023-01-29T08:58:09;1.80;57.00
16271;DHT22;8243;49.048;8.396;2023-01-29T09:00:36;2.00;56.70
16271;DHT22;8243;49.048;8.396;2023-01-29T09:03:02;2.20;56.00
16271;DHT22;8243;49.048;8.396;2023-01-29T09:05:28;2.20;53.60
16271;DHT22;8243;49.048;8.396;2023-01-29T09:07:57;2.40;52.80
16271;DHT22;8243;49.048;8.396;2023-01-29T09:10:23;2.20;52.60
16271;DHT22;8243;49.048;8.396;2023-01-29T09:12:48;2.50;50.60
16271;DHT22;8243;49.048;8.396;2023-01-29T09:15:14;2.40;48.40
16271;DHT22;8243;49.048;8.396;2023-01-29T09:17:39;2.80;48.00
16271;DHT22;8243;49.048;8.396;2023-01-29T09:20:06;2.60;48.80
16271;DHT22;8243;49.048;8.396;2023-01-29T09:22:32;2.40;50.50
16271;DHT22;8243;49.048;8.396;2023-01-29T09:24:58;2.40;49.50
16271;DHT22;8243;49.048;8.396;2023-01-29T09:27:23;2.20;48.90
16271;DHT22;8243;49.048;8.396;2023-01-29T09:29:49;2.50;49.80
16271;DHT22;8243;49.048;8.396;2023-01-29T09:32:15;2.50;49.10
16271;DHT22;8243;49.048;8.396;2023-01-29T09:34:40;2.90;48.60
16271;DHT22;8243;49.048;8.396;2023-01-29T09:37:06;3.60;45.40
16271;DHT22;8243;49.048;8.396;2023-01-29T09:39:32;5.20;36.60
16271;DHT22;8243;49.048;8.396;2023-01-29T09:47:26;6.80;26.10
16271;DHT22;8243;49.048;8.396;2023-01-29T09:49:57;7.10;24.00
16271;DHT22;8243;49.048;8.396;2023-01-29T09:52:26;6.80;23.70
16271;DHT22;8243;49.048;8.396;2023-01-29T09:55:06;6.40;24.20
16271;DHT22;8243;49.048;8.396;2023-01-29T10:05:41;5.90;23.10
16271;DHT22;8243;49.048;8.396;2023-01-29T10:08:32;5.30;23.40
16271;DHT22;8243;49.048;8.396;2023-01-29T10:14:18;4.10;26.40
16271;DHT22;8243;49.048;8.396;2023-01-29T10:24:59;4.10;29.80
16271;DHT22;8243;49.048;8.396;2023-01-29T10:27:32;4.60;28.10
16271;DHT22;8243;49.048;8.396;2023-01-29T10:29:59;4.70;27.60
16271;DHT22;8243;49.048;8.396;2023-01-29T10:32:26;4.70;25.50
16271;DHT22;8243;49.048;8.396;2023-01-29T10:35:12;5.10;25.00
16271;DHT22;8243;49.048;8.396;2023-01-29T10:37:41;4.80;26.10
16271;DHT22;8243;49.048;8.396;2023-01-29T10:42:48;4.80;26.00
16271;DHT22;8243;49.048;8.396;2023-01-29T10:48:10;3.80;26.80
16271;DHT22;8243;49.048;8.396;2023-01-29T10:50:51;3.20;29.50
16271;DHT22;8243;49.048;8.396;2023-01-29T10:53:32;3.00;31.80
16271;DHT22;8243;49.048;8.396;2023-01-29T10:56:23;3.10;33.60
16271;DHT22;8243;49.048;8.396;2023-01-29T10:58:56;3.10;31.70
16271;DHT22;8243;49.048;8.396;2023-01-29T11:01:23;2.90;32.40
16271;DHT22;8243;49.048;8.396;2023-01-29T11:04:00;3.30;32.10
16271;DHT22;8243;49.048;8.396;2023-01-29T11:06:31;3.30;33.30
16271;DHT22;8243;49.048;8.396;2023-01-29T11:09:31;3.70;31.50
16271;DHT22;8243;49.048;8.396;2023-01-29T11:15:15;3.80;29.70
16271;DHT22;8243;49.048;8.396;2023-01-29T11:17:33;3.90;30.10
16271;DHT22;8243;49.048;8.396;2023-01-29T11:19:59;3.80;29.50
16271;DHT22;8243;49.048;8.396;2023-01-29T11:22:26;3.70;29.10
16271;DHT22;8243;49.048;8.396;2023-01-29T11:25:15;4.00;28.80
16271;DHT22;8243;49.048;8.396;2023-01-29T11:28:00;3.80;28.70
16271;DHT22;8243;49.048;8.396;2023-01-29T11:30:40;4.00;29.00
16271;DHT22;8243;49.048;8.396;2023-01-29T11:33:19;4.00;28.90
16271;DHT22;8243;49.048;8.396;2023-01-29T11:35:46;4.30;28.30
16271;DHT22;8243;49.048;8.396;2023-01-29T11:38:19;4.60;28.80
16271;DHT22;8243;49.048;8.396;2023-01-29T11:40:46;4.70;27.10
16271;DHT22;8243;49.048;8.396;2023-01-29T11:43:41;4.80;27.00
16271;DHT22;8243;49.048;8.396;2023-01-29T11:46:13;4.40;27.00
16271;DHT22;8243;49.048;8.396;2023-01-29T11:48:47;4.60;28.20
16271;DHT22;8243;49.048;8.396;2023-01-29T11:51:25;4.20;27.90
16271;DHT22;8243;49.048;8.396;2023-01-29T11:54:01;4.70;27.10
16271;DHT22;8243;49.048;8.396;2023-01-29T11:56:38;4.20;27.20
16271;DHT22;8243;49.048;8.396;2023-01-29T11:59:05;4.60;27.50
16271;DHT22;8243;49.048;8.396;2023-01-29T12:01:37;4.30;26.40
16271;DHT22;8243;49.048;8.396;2023-01-29T12:04:20;4.10;28.70
16271;DHT22;8243;49.048;8.396;2023-01-29T12:06:48;4.40;28.30
16271;DHT22;8243;49.048;8.396;2023-01-29T12:09:20;5.00;26.70
16271;DHT22;8243;49.048;8.396;2023-01-29T12:11:47;5.10;27.40
16271;DHT22;8243;49.048;8.396;2023-01-29T12:14:32;4.90;26.30
16271;DHT22;8243;49.048;8.396;2023-01-29T12:17:05;5.10;25.90
16271;DHT22;8243;49.048;8.396;2023-01-29T12:25:21;5.50;24.30
16271;DHT22;8243;49.048;8.396;2023-01-29T12:30:30;5.80;23.00
16271;DHT22;8243;49.048;8.396;2023-01-29T12:39:16;5.20;23.20
16271;DHT22;8243;49.048;8.396;2023-01-29T12:41:58;5.50;23.30
16271;DHT22;8243;49.048;8.396;2023-01-29T12:44:35;5.80;24.70
16271;DHT22;8243;49.048;8.396;2023-01-29T12:47:13;6.30;22.30
16271;DHT22;8243;49.048;8.396;2023-01-29T12:49:40;6.20;22.00
16271;DHT22;8243;49.048;8.396;2023-01-29T12:52:11;6.00;21.90
16271;DHT22;8243;49.048;8.396;2023-01-29T12:55:05;6.00;22.10
16271;DHT22;8243;49.048;8.396;2023-01-29T12:57:42;5.90;22.80
16271;DHT22;8243;49.048;8.396;2023-01-29T13:00:24;5.90;22.00
16271;DHT22;8243;49.048;8.396;2023-01-29T13:05:50;5.60;22.70
16271;DHT22;8243;49.048;8.396;2023-01-29T13:08:30;5.90;22.50
16271;DHT22;8243;49.048;8.396;2023-01-29T13:10:59;6.00;21.80
16271;DHT22;8243;49.048;8.396;2023-01-29T13:16:03;6.10;21.40
16271;DHT22;8243;49.048;8.396;2023-01-29T13:21:28;6.10;21.10
16271;DHT22;8243;49.048;8.396;2023-01-29T13:23:59;6.00;20.90
16271;DHT22;8243;49.048;8.396;2023-01-29T13:26:26;5.70;21.00
16271;DHT22;8243;49.048;8.396;2023-01-29T13:28:52;5.50;22.10
16271;DHT22;8243;49.048;8.396;2023-01-29T13:31:35;5.50;22.30
16271;DHT22;8243;49.048;8.396;2023-01-29T13:34:12;5.70;21.40
16271;DHT22;8243;49.048;8.396;2023-01-29T13:36:43;5.70;21.60
16271;DHT22;8243;49.048;8.396;2023-01-29T13:39:21;5.90;21.70
16271;DHT22;8243;49.048;8.396;2023-01-29T13:41:49;5.90;22.10
16271;DHT22;8243;49.048;8.396;2023-01-29T13:44:37;5.80;21.90
16271;DHT22;8243;49.048;8.396;2023-01-29T13:47:06;5.90;22.00
16271;DHT22;8243;49.048;8.396;2023-01-29T13:49:41;5.70;21.50
16271;DHT22;8243;49.048;8.396;2023-01-29T13:52:37;5.60;21.60
16271;DHT22;8243;49.048;8.396;2023-01-29T13:55:05;5.30;22.00
16271;DHT22;8243;49.048;8.396;2023-01-29T14:08:02;5.00;23.70
16271;DHT22;8243;49.048;8.396;2023-01-29T14:10:35;5.10;23.70
16271;DHT22;8243;49.048;8.396;2023-01-29T14:15:36;5.00;23.40
16271;DHT22;8243;49.048;8.396;2023-01-29T14:20:50;5.10;23.60
16271;DHT22;8243;49.048;8.396;2023-01-29T14:23:44;5.20;23.40
16271;DHT22;8243;49.048;8.396;2023-01-29T14:26:33;5.30;23.50
16271;DHT22;8243;49.048;8.396;2023-01-29T14:36:44;4.60;24.90
16271;DHT22;8243;49.048;8.396;2023-01-29T14:39:27;4.80;25.20
16271;DHT22;8243;49.048;8.396;2023-01-29T14:41:54;4.40;25.10
16271;DHT22;8243;49.048;8.396;2023-01-29T14:44:46;4.50;26.00
16271;DHT22;8243;49.048;8.396;2023-01-29T14:47:19;4.20;26.60
16271;DHT22;8243;49.048;8.396;2023-01-29T14:52:50;4.00;27.70
16271;DHT22;8243;49.048;8.396;2023-01-29T14:57:56;3.80;28.70
16271;DHT22;8243;49.048;8.396;2023-01-29T15:00:28;4.10;29.20
16271;DHT22;8243;49.048;8.396;2023-01-29T15:02:54;4.00;29.10
16271;DHT22;8243;49.048;8.396;2023-01-29T15:05:31;3.90;29.20
16271;DHT22;8243;49.048;8.396;2023-01-29T15:08:06;4.30;29.50
16271;DHT22;8243;49.048;8.396;2023-01-29T15:10:49;4.10;29.00
16271;DHT22;8243;49.048;8.396;2023-01-29T15:13:47;4.20;29.00
16271;DHT22;8243;49.048;8.396;2023-01-29T15:19:26;4.30;29.40
16271;DHT22;8243;49.048;8.396;2023-01-29T15:22:22;4.20;29.70
16271;DHT22;8243;49.048;8.396;2023-01-29T15:25:05;3.90;30.10
16271;DHT22;8243;49.048;8.396;2023-01-29T15:27:32;4.00;31.30
16271;DHT22;8243;49.048;8.396;2023-01-29T15:30:00;3.90;31.20
16271;DHT22;8243;49.048;8.396;2023-01-29T15:32:36;3.90;30.90
16271;DHT22;8243;49.048;8.396;2023-01-29T15:35:09;3.90;30.90
16271;DHT22;8243;49.048;8.396;2023-01-29T15:37:36;3.90;32.00
16271;DHT22;8243;49.048;8.396;2023-01-29T15:40:14;3.70;32.50
16271;DHT22;8243;49.048;8.396;2023-01-29T15:42:46;3.80;32.60
16271;DHT22;8243;49.048;8.396;2023-01-29T15:45:28;3.80;33.20
16271;DHT22;8243;49.048;8.396;2023-01-29T15:50:27;3.70;34.40
16271;DHT22;8243;49.048;8.396;2023-01-29T15:53:01;3.60;34.80
16271;DHT22;8243;49.048;8.396;2023-01-29T15:55:29;3.40;35.50
16271;DHT22;8243;49.048;8.396;2023-01-29T15:57:56;3.40;36.20
16271;DHT22;8243;49.048;8.396;2023-01-29T16:00:24;3.10;36.50
16271;DHT22;8243;49.048;8.396;2023-01-29T16:02:52;3.10;37.30
16271;DHT22;8243;49.048;8.396;2023-01-29T16:05:24;3.10;38.50
16271;DHT22;8243;49.048;8.396;2023-01-29T16:07:51;3.00;39.70
16271;DHT22;8243;49.048;8.396;2023-01-29T16:10:23;2.70;39.90
16271;DHT22;8243;49.048;8.396;2023-01-29T16:12:51;2.60;40.40
16271;DHT22;8243;49.048;8.396;2023-01-29T16:15:27;2.30;41.30
16271;DHT22;8243;49.048;8.396;2023-01-29T16:17:58;2.30;42.20
16271;DHT22;8243;49.048;8.396;2023-01-29T16:20:42;2.40;42.50
16271;DHT22;8243;49.048;8.396;2023-01-29T16:23:25;2.30;43.10
16271;DHT22;8243;49.048;8.396;2023-01-29T16:25:52;2.30;44.10
16271;DHT22;8243;49.048;8.396;2023-01-29T16:28:19;2.20;44.90
16271;DHT22;8243;49.048;8.396;2023-01-29T16:30:45;2.00;45.80
16271;DHT22;8243;49.048;8.396;2023-01-29T16:33:13;1.80;46.60
16271;DHT22;8243;49.048;8.396;2023-01-29T16:35:40;1.90;47.70
16271;DHT22;8243;49.048;8.396;2023-01-29T16:38:26;1.80;48.30
16271;DHT22;8243;49.048;8.396;2023-01-29T16:43:48;1.80;49.10
16271;DHT22;8243;49.048;8.396;2023-01-29T16:48:49;1.50;50.90
16271;DHT22;8243;49.048;8.396;2023-01-29T16:51:27;1.60;51.50
16271;DHT22;8243;49.048;8.396;2023-01-29T16:54:10;1.50;51.80
16271;DHT22;8243;49.048;8.396;2023-01-29T16:56:37;1.30;52.60
16271;DHT22;8243;49.048;8.396;2023-01-29T16:59:04;1.40;54.10
16271;DHT22;8243;49.048;8.396;2023-01-29T17:01:32;1.20;54.70
16271;DHT22;8243;49.048;8.396;2023-01-29T17:04:08;1.30;55.70
16271;DHT22;8243;49.048;8.396;2023-01-29T17:06:35;1.20;56.10
16271;DHT22;8243;49.048;8.396;2023-01-29T17:09:02;1.20;55.90
16271;DHT22;8243;49.048;8.396;2023-01-29T17:11:37;1.30;56.80
16271;DHT22;8243;49.048;8.396;2023-01-29T17:14:05;1.10;57.50
16271;DHT22;8243;49.048;8.396;2023-01-29T17:16:34;1.20;58.80
16271;DHT22;8243;49.048;8.396;2023-01-29T17:19:00;1.00;58.40
16271;DHT22;8243;49.048;8.396;2023-01-29T17:21:27;1.00;59.20
16271;DHT22;8243;49.048;8.396;2023-01-29T17:23:53;1.10;59.50
16271;DHT22;8243;49.048;8.396;2023-01-29T17:26:20;1.00;60.70
16271;DHT22;8243;49.048;8.396;2023-01-29T17:28:48;0.80;61.10
16271;DHT22;8243;49.048;8.396;2023-01-29T17:31:14;0.90;61.50
16271;DHT22;8243;49.048;8.396;2023-01-29T17:33:41;0.90;62.80
16271;DHT22;8243;49.048;8.396;2023-01-29T17:36:14;0.70;63.90
16271;DHT22;8243;49.048;8.396;2023-01-29T17:38:39;0.80;64.70
16271;DHT22;8243;49.048;8.396;2023-01-29T17:41:11;0.90;65.60
16271;DHT22;8243;49.048;8.396;2023-01-29T17:43:38;0.70;66.70
16271;DHT22;8243;49.048;8.396;2023-01-29T17:46:03;0.80;67.60
16271;DHT22;8243;49.048;8.396;2023-01-29T17:48:29;0.90;68.50
16271;DHT22;8243;49.048;8.396;2023-01-29T17:51:01;0.80;69.00
16271;DHT22;8243;49.048;8.396;2023-01-29T17:53:27;0.70;69.10
16271;DHT22;8243;49.048;8.396;2023-01-29T17:55:53;0.60;70.60
16271;DHT22;8243;49.048;8.396;2023-01-29T17:58:23;0.70;70.90
16271;DHT22;8243;49.048;8.396;2023-01-29T18:00:49;0.80;71.50
16271;DHT22;8243;49.048;8.396;2023-01-29T18:03:15;0.60;72.00
16271;DHT22;8243;49.048;8.396;2023-01-29T18:05:42;0.60;72.70
16271;DHT22;8243;49.048;8.396;2023-01-29T18:08:21;0.60;72.40
16271;DHT22;8243;49.048;8.396;2023-01-29T18:10:49;0.60;73.80
16271;DHT22;8243;49.048;8.396;2023-01-29T18:13:14;0.60;74.00
16271;DHT22;8243;49.048;8.396;2023-01-29T18:15:40;0.70;74.50
16271;DHT22;8243;49.048;8.396;2023-01-29T18:18:07;0.60;74.60
16271;DHT22;8243;49.048;8.396;2023-01-29T18:20:34;0.90;75.00
16271;DHT22;8243;49.048;8.396;2023-01-29T18:23:01;0.80;74.80
16271;DHT22;8243;49.048;8.396;2023-01-29T18:25:29;0.70;75.60
16271;DHT22;8243;49.048;8.396;2023-01-29T18:27:54;0.60;76.90
16271;DHT22;8243;49.048;8.396;2023-01-29T18:30:20;0.70;77.50
16271;DHT22;8243;49.048;8.396;2023-01-29T18:32:46;0.60;77.90
16271;DHT22;8243;49.048;8.396;2023-01-29T18:35:12;0.70;78.50
16271;DHT22;8243;49.048;8.396;2023-01-29T18:37:38;0.60;78.80
16271;DHT22;8243;49.048;8.396;2023-01-29T18:40:03;0.60;79.80
16271;DHT22;8243;49.048;8.396;2023-01-29T18:42:31;0.40;81.60
16271;DHT22;8243;49.048;8.396;2023-01-29T18:45:01;0.40;83.50